createdAt,value
2022-11-15T00:03:17.615Z,74.25
2022-11-15T00:06:37.901Z,74.18
2022-11-15T00:09:58.157Z,73.50
2022-11-15T00:13:18.699Z,73.81
2022-11-15T00:16:39.309Z,74.23
2022-11-15T00:19:59.765Z,74.53
2022-11-15T00:23:20.356Z,74.11
2022-11-15T00:26:40.804Z,74.19
2022-11-15T00:30:01.043Z,74.04
2022-11-15T00:33:21.487Z,74.31
2022-11-15T00:36:41.975Z,74.99
2022-11-15T00:40:02.604Z,74.78
2022-11-15T00:43:22.741Z,75.00
2022-11-15T00:46:43.150Z,75.65
2022-11-15T00:50:03.927Z,75.72
2022-11-15T00:53:24.563Z,76.12
2022-11-15T00:56:45.082Z,75.56
2022-11-15T01:00:06.400Z,75.64
2022-11-15T01:03:26.916Z,75.39
2022-11-15T01:06:47.453Z,74.71
2022-11-15T01:10:08.286Z,74.50
2022-11-15T01:13:31.720Z,74.46
2022-11-15T01:16:52.303Z,74.18
2022-11-15T01:20:12.893Z,74.28
2022-11-15T01:23:33.750Z,74.84
2022-11-15T01:26:54.554Z,75.07
2022-11-15T01:30:15.431Z,75.90
2022-11-15T01:33:39.705Z,75.79
2022-11-15T01:36:59.930Z,75.77
2022-11-15T01:40:20.292Z,75.50
2022-11-15T01:43:40.790Z,75.23
2022-11-15T01:47:04.151Z,75.40
2022-11-15T01:50:28.017Z,76.27
2022-11-15T01:53:53.509Z,75.38
2022-11-15T01:57:14.602Z,75.03
2022-11-15T02:00:35.275Z,75.21
2022-11-15T02:04:01.827Z,75.19
2022-11-15T02:07:23.684Z,75.10
2022-11-15T02:10:43.988Z,75.37
2022-11-15T02:14:06.488Z,75.27
2022-11-15T02:17:44.708Z,75.18
2022-11-15T02:21:19.126Z,74.94
2022-11-15T02:24:48.235Z,74.78
2022-11-15T02:28:23.590Z,75.36
2022-11-15T02:31:56.179Z,75.13
2022-11-15T02:35:46.758Z,75.13
2022-11-15T02:39:10.205Z,75.08
2022-11-15T02:42:55.917Z,75.30
2022-11-15T02:47:00.228Z,75.75
2022-11-15T02:50:24.406Z,76.05
2022-11-15T02:53:44.893Z,75.50
2022-11-15T02:57:12.180Z,75.59
2022-11-15T03:00:36.990Z,75.52
2022-11-15T03:04:37.285Z,75.71
2022-11-15T03:08:27.274Z,76.24
2022-11-15T03:11:57.509Z,75.25
2022-11-15T03:15:29.474Z,75.66
2022-11-15T03:18:57.348Z,75.17
2022-11-15T03:22:22.388Z,75.83
2022-11-15T03:25:48.372Z,75.79
2022-11-15T03:29:20.997Z,75.98
2022-11-15T03:32:48.094Z,76.31
2022-11-15T03:36:08.905Z,76.21
2022-11-15T03:39:30.097Z,76.30
2022-11-15T03:42:55.795Z,76.16
2022-11-15T03:46:33.506Z,76.82
2022-11-15T03:49:59.803Z,76.39
2022-11-15T03:53:20.334Z,76.21
2022-11-15T03:56:40.827Z,76.35
2022-11-15T04:00:01.471Z,76.71
2022-11-15T04:03:22.001Z,76.27
2022-11-15T04:06:42.360Z,76.20
2022-11-15T04:10:06.481Z,77.12
2022-11-15T04:13:26.771Z,77.37
2022-11-15T04:16:47.137Z,77.21
2022-11-15T04:20:29.531Z,77.02
2022-11-15T04:24:08.266Z,76.79
2022-11-15T04:27:28.623Z,76.47
2022-11-15T04:30:49.282Z,77.13
2022-11-15T04:34:09.565Z,76.52
2022-11-15T04:37:29.784Z,76.24
2022-11-15T04:40:50.232Z,76.38
2022-11-15T04:44:10.840Z,76.86
2022-11-15T04:47:31.026Z,76.34
2022-11-15T04:50:51.475Z,76.15
2022-11-15T04:54:11.919Z,76.35
2022-11-15T04:57:32.427Z,76.55
2022-11-15T05:00:52.858Z,76.52
2022-11-15T05:04:21.949Z,76.65
2022-11-15T05:07:42.254Z,76.56
2022-11-15T05:11:02.784Z,76.70
2022-11-15T05:14:23.279Z,76.20
2022-11-15T05:17:43.640Z,76.48
2022-11-15T05:21:05.514Z,76.19
2022-11-15T05:24:25.723Z,76.59
2022-11-15T05:27:46.198Z,76.60
2022-11-15T05:31:12.663Z,76.91
2022-11-15T05:34:33.471Z,76.85
2022-11-15T05:37:53.767Z,77.24
2022-11-15T05:41:15.601Z,77.50
2022-11-15T05:44:37.592Z,77.14
2022-11-15T05:48:00.856Z,77.40
2022-11-15T05:51:22.962Z,77.88
2022-11-15T05:54:43.558Z,77.94
2022-11-15T05:58:03.976Z,77.82
2022-11-15T06:01:26.417Z,78.02
2022-11-15T06:04:47.144Z,78.13
2022-11-15T06:08:07.619Z,77.92
2022-11-15T06:11:28.057Z,78.10
2022-11-15T06:14:48.320Z,77.69
2022-11-15T06:18:08.641Z,77.79
2022-11-15T06:21:30.150Z,77.92
2022-11-15T06:24:50.588Z,77.89
2022-11-15T06:28:11.350Z,77.46
2022-11-15T06:31:32.372Z,77.57
2022-11-15T06:34:52.961Z,77.32
2022-11-15T06:38:13.552Z,76.95
2022-11-15T06:41:37.205Z,76.96
2022-11-15T06:44:57.686Z,76.63
2022-11-15T06:48:17.964Z,76.26
2022-11-15T06:51:38.429Z,75.71
2022-11-15T06:54:58.945Z,75.87
2022-11-15T06:58:19.344Z,75.84
2022-11-15T07:01:39.750Z,75.85
2022-11-15T07:04:59.982Z,75.91
2022-11-15T07:08:20.466Z,75.93
2022-11-15T07:11:41.055Z,75.99
2022-11-15T07:15:01.774Z,75.73
2022-11-15T07:18:22.559Z,74.71
2022-11-15T07:21:42.794Z,74.54
2022-11-15T07:25:03.558Z,73.60
2022-11-15T07:28:24.048Z,72.27
2022-11-15T07:31:44.502Z,71.93
2022-11-15T07:35:05.331Z,70.82
2022-11-15T07:38:25.412Z,70.04
2022-11-15T07:41:45.718Z,69.62
2022-11-15T07:45:06.769Z,68.74
2022-11-15T07:48:35.632Z,67.99
2022-11-15T07:52:02.986Z,67.32
2022-11-15T07:55:24.742Z,66.30
2022-11-15T07:58:46.763Z,65.45
2022-11-15T08:02:07.213Z,64.82
2022-11-15T08:05:27.565Z,64.32
2022-11-15T08:08:48.589Z,63.35
2022-11-15T08:12:09.167Z,63.28
2022-11-15T08:15:30.257Z,62.80
2022-11-15T08:18:50.798Z,62.62
2022-11-15T08:22:11.219Z,62.65
2022-11-15T08:25:33.245Z,62.67
2022-11-15T08:28:53.319Z,62.43
2022-11-15T08:32:13.765Z,62.79
2022-11-15T08:35:34.548Z,63.09
2022-11-15T08:38:55.073Z,63.50
2022-11-15T08:42:19.901Z,63.63
2022-11-15T08:45:40.912Z,63.94
2022-11-15T08:49:01.529Z,63.65
2022-11-15T08:52:22.134Z,63.90
2022-11-15T08:55:42.479Z,64.00
2022-11-15T09:02:49.533Z,63.66
2022-11-15T09:06:10.221Z,63.68
2022-11-15T09:09:30.675Z,63.47
2022-11-15T09:12:52.476Z,63.69
2022-11-15T09:16:13.800Z,63.51
2022-11-15T09:19:34.174Z,64.22
2022-11-15T09:22:54.707Z,64.55
2022-11-15T09:26:15.314Z,64.36
2022-11-15T09:29:35.825Z,64.62
2022-11-15T09:32:56.154Z,64.25
2022-11-15T09:36:17.829Z,64.38
2022-11-15T09:39:37.993Z,64.31
2022-11-15T09:43:26.613Z,64.59
2022-11-15T09:47:08.015Z,64.56
2022-11-15T09:50:44.554Z,64.52
2022-11-15T09:54:45.522Z,64.93
2022-11-15T09:57:39.917Z,64.81
2022-11-15T10:00:47.973Z,65.16
2022-11-15T10:03:50.363Z,64.45
2022-11-15T10:07:23.877Z,64.42
2022-11-15T10:10:25.595Z,64.36
2022-11-15T10:13:31.713Z,65.02
2022-11-15T10:16:52.408Z,65.01
2022-11-15T10:19:59.655Z,64.82
2022-11-15T10:23:14.536Z,64.76
2022-11-15T10:26:17.999Z,65.15
2022-11-15T10:29:26.991Z,64.89
2022-11-15T10:32:29.846Z,65.44
2022-11-15T10:35:31.728Z,65.02
2022-11-15T10:38:33.925Z,65.17
2022-11-15T10:41:39.371Z,65.13
2022-11-15T10:44:45.482Z,65.25
2022-11-15T10:47:47.287Z,64.95
2022-11-15T10:50:51.650Z,65.07
2022-11-15T10:53:53.494Z,64.71
2022-11-15T10:56:59.426Z,64.65
2022-11-15T11:00:19.758Z,64.63
2022-11-15T11:03:36.269Z,64.76
2022-11-15T11:06:51.533Z,64.82
2022-11-15T11:10:00.844Z,64.99
2022-11-15T11:13:36.856Z,64.74
2022-11-15T11:17:00.196Z,64.91
2022-11-15T11:20:11.624Z,64.63
2022-11-15T11:23:39.492Z,64.69
2022-11-15T11:26:57.117Z,64.51
2022-11-15T11:30:29.976Z,64.44
2022-11-15T11:33:39.925Z,64.49
2022-11-15T11:37:18.806Z,64.24
2022-11-15T11:40:43.344Z,64.56
2022-11-15T11:43:45.400Z,64.50
2022-11-15T11:47:07.648Z,64.57
2022-11-15T11:50:38.039Z,64.35
2022-11-15T11:54:00.112Z,65.08
2022-11-15T11:57:07.094Z,64.65
2022-11-15T12:00:20.779Z,64.55
2022-11-15T12:03:44.724Z,64.58
2022-11-15T12:06:52.207Z,64.53
2022-11-15T12:10:02.821Z,64.29
2022-11-15T12:13:17.505Z,64.48
2022-11-15T12:16:27.326Z,64.62
2022-11-15T12:19:30.966Z,64.91
2022-11-15T12:22:51.493Z,65.04
2022-11-15T12:26:07.830Z,65.33
2022-11-15T12:29:20.244Z,65.06
2022-11-15T12:32:33.912Z,65.06
2022-11-15T12:35:46.265Z,65.27
2022-11-15T12:39:03.711Z,64.94
2022-11-15T12:42:05.497Z,64.97
2022-11-15T12:45:29.908Z,65.10
2022-11-15T12:48:38.352Z,65.15
2022-11-15T12:51:43.139Z,65.13
2022-11-15T12:54:52.424Z,65.01
2022-11-15T12:57:54.341Z,65.21
2022-11-15T13:00:56.285Z,64.82
2022-11-15T13:04:19.776Z,64.47
2022-11-15T13:07:36.969Z,64.31
2022-11-15T13:10:38.865Z,64.86
2022-11-15T13:13:45.966Z,64.87
2022-11-15T13:16:48.774Z,65.17
2022-11-15T13:20:07.202Z,65.00
2022-11-15T13:23:12.978Z,65.38
2022-11-15T13:26:19.954Z,65.13
2022-11-15T13:29:21.854Z,65.61
2022-11-15T13:32:23.810Z,66.03
2022-11-15T13:35:28.725Z,66.16
2022-11-15T13:38:39.365Z,66.23
2022-11-15T13:41:51.885Z,65.94
2022-11-15T13:44:59.828Z,66.08
2022-11-15T13:48:04.315Z,66.36
2022-11-15T13:51:23.168Z,66.78
2022-11-15T13:54:48.178Z,66.71
2022-11-15T13:57:54.499Z,67.19
2022-11-15T14:01:02.456Z,67.39
2022-11-15T14:04:04.876Z,67.32
2022-11-15T14:07:06.728Z,67.62
2022-11-15T14:10:38.559Z,68.12
2022-11-15T14:13:40.826Z,67.78
2022-11-15T14:16:44.199Z,68.09
2022-11-15T14:19:46.087Z,68.38
2022-11-15T14:22:59.157Z,68.36
2022-11-15T14:26:01.030Z,68.82
2022-11-15T14:29:25.789Z,68.50
2022-11-15T14:32:43.758Z,68.90
2022-11-15T14:35:45.584Z,68.92
2022-11-15T14:38:48.383Z,68.75
2022-11-15T14:41:50.094Z,69.08
2022-11-15T14:44:52.845Z,68.84
2022-11-15T14:47:54.727Z,68.96
2022-11-15T14:50:57.901Z,69.08
2022-11-15T14:53:59.768Z,69.00
2022-11-15T14:57:01.591Z,69.20
2022-11-15T15:00:04.613Z,69.28
2022-11-15T15:03:15.741Z,69.21
2022-11-15T15:06:18.488Z,69.40
2022-11-15T15:09:20.639Z,69.66
2022-11-15T15:12:24.197Z,69.25
2022-11-15T15:15:30.788Z,69.67
2022-11-15T15:18:33.001Z,69.50
2022-11-15T15:21:37.480Z,69.36
2022-11-15T15:24:39.635Z,69.62
2022-11-15T15:27:41.444Z,69.84
2022-11-15T15:30:43.326Z,69.88
2022-11-15T15:33:45.721Z,70.08
2022-11-15T15:36:47.590Z,70.00
2022-11-15T15:39:50.574Z,70.24
2022-11-15T15:42:52.448Z,70.86
2022-11-15T15:45:54.993Z,70.44
2022-11-15T15:48:57.067Z,70.58
2022-11-15T15:51:58.955Z,70.60
2022-11-15T15:55:00.852Z,70.67
2022-11-15T15:58:02.881Z,70.84
2022-11-15T16:01:04.844Z,71.35
2022-11-15T16:04:06.715Z,71.34
2022-11-15T16:07:17.596Z,72.34
2022-11-15T16:10:22.304Z,71.73
2022-11-15T16:13:24.232Z,71.87
2022-11-15T16:16:26.355Z,71.94
2022-11-15T16:19:28.202Z,72.32
2022-11-15T16:22:30.290Z,73.04
2022-11-15T16:25:38.636Z,72.73
2022-11-15T16:28:40.477Z,72.73
2022-11-15T16:31:42.358Z,72.52
2022-11-15T16:34:48.820Z,72.92
2022-11-15T16:37:51.346Z,73.20
2022-11-15T16:40:53.201Z,73.00
2022-11-15T16:43:55.103Z,73.25
2022-11-15T16:46:56.979Z,73.36
2022-11-15T16:49:58.796Z,73.51
2022-11-15T16:53:01.511Z,73.47
2022-11-15T16:56:03.700Z,73.58
2022-11-15T16:59:06.218Z,73.37
2022-11-15T17:02:17.357Z,73.59
2022-11-15T17:05:21.493Z,73.20
2022-11-15T17:08:24.317Z,73.49
2022-11-15T17:11:26.167Z,73.62
2022-11-15T17:14:27.920Z,73.60
2022-11-15T17:17:29.691Z,73.71
2022-11-15T17:20:33.686Z,73.25
2022-11-15T17:23:35.748Z,73.46
2022-11-15T17:26:40.752Z,73.48
2022-11-15T17:29:43.060Z,73.42
2022-11-15T17:32:44.859Z,73.12
2022-11-15T17:35:46.698Z,73.22
2022-11-15T17:38:56.523Z,73.23
2022-11-15T17:42:04.078Z,73.09
2022-11-15T17:45:10.208Z,73.04
2022-11-15T17:48:15.526Z,72.83
2022-11-15T17:51:20.357Z,72.97
2022-11-15T17:54:26.310Z,73.18
2022-11-15T17:57:33.081Z,72.86
2022-11-15T18:00:40.550Z,73.14
2022-11-15T18:03:43.706Z,73.41
2022-11-15T18:06:47.064Z,73.21
2022-11-15T18:09:49.541Z,73.25
2022-11-15T18:12:54.648Z,73.18
2022-11-15T18:16:03.024Z,73.39
2022-11-15T18:19:13.619Z,73.83
2022-11-15T18:22:16.567Z,73.52
2022-11-15T18:25:19.626Z,73.70
2022-11-15T18:28:25.179Z,73.71
2022-11-15T18:31:31.205Z,74.00
2022-11-15T18:34:35.359Z,74.10
2022-11-15T18:37:37.375Z,74.26
2022-11-15T18:40:41.379Z,74.09
2022-11-15T18:43:48.055Z,74.41
2022-11-15T18:46:52.885Z,74.09
2022-11-15T18:49:59.955Z,74.10
2022-11-15T18:53:06.068Z,74.14
2022-11-15T18:56:14.223Z,74.43
2022-11-15T18:59:20.431Z,74.23
2022-11-15T19:02:23.648Z,74.52
2022-11-15T19:05:30.933Z,74.23
2022-11-15T19:08:36.965Z,74.27
2022-11-15T19:11:40.226Z,74.74
2022-11-15T19:14:44.367Z,74.66
2022-11-15T19:17:49.784Z,74.78
2022-11-15T19:20:55.045Z,74.78
2022-11-15T19:24:03.330Z,74.97
2022-11-15T19:27:07.045Z,75.08
2022-11-15T19:30:11.399Z,74.65
2022-11-15T19:33:14.414Z,74.87
2022-11-15T19:36:27.747Z,75.20
2022-11-15T19:39:31.733Z,75.18
2022-11-15T19:42:34.970Z,75.46
2022-11-15T19:45:38.633Z,75.70
2022-11-15T19:48:43.932Z,75.56
2022-11-15T19:51:48.481Z,75.70
2022-11-15T19:54:51.648Z,75.86
2022-11-15T19:57:53.927Z,76.07
2022-11-15T20:01:09.300Z,76.08
2022-11-15T20:04:14.004Z,75.97
2022-11-15T20:07:20.168Z,76.14
2022-11-15T20:10:22.124Z,76.30
2022-11-15T20:13:25.017Z,76.31
2022-11-15T20:16:27.567Z,76.43
2022-11-15T20:19:32.746Z,76.37
2022-11-15T20:22:34.562Z,76.30
2022-11-15T20:25:38.528Z,76.10
2022-11-15T20:28:44.797Z,76.02
2022-11-15T20:31:46.715Z,76.07
2022-11-15T20:34:52.940Z,76.10
2022-11-15T20:37:55.997Z,76.15
2022-11-15T20:41:00.355Z,76.52
2022-11-15T20:44:03.701Z,76.38
2022-11-15T20:47:06.823Z,76.54
2022-11-15T20:50:35.432Z,76.33
2022-11-15T20:53:31.803Z,76.69
2022-11-15T20:56:33.679Z,76.40
2022-11-15T20:59:35.455Z,76.45
2022-11-15T21:02:38.720Z,76.74
2022-11-15T21:05:43.618Z,76.67
2022-11-15T21:09:03.844Z,76.95
2022-11-15T21:12:12.445Z,77.09
2022-11-15T21:15:14.335Z,76.96
2022-11-15T21:18:16.621Z,76.67
2022-11-15T21:21:18.478Z,77.08
2022-11-15T21:24:20.772Z,77.02
2022-11-15T21:27:22.506Z,76.98
2022-11-15T21:30:24.757Z,76.88
2022-11-15T21:33:27.721Z,77.22
2022-11-15T21:36:29.819Z,77.27
2022-11-15T21:39:31.752Z,77.26
2022-11-15T21:42:33.637Z,77.25
2022-11-15T21:45:35.519Z,76.87
2022-11-15T21:48:37.363Z,77.15
2022-11-15T21:51:39.222Z,77.55
2022-11-15T21:54:41.569Z,77.40
2022-11-15T21:57:43.357Z,77.18
2022-11-15T22:01:04.754Z,77.28
2022-11-15T22:04:06.818Z,77.35
2022-11-15T22:07:08.913Z,77.63
2022-11-15T22:10:11.017Z,77.29
2022-11-15T22:13:13.667Z,77.44
2022-11-15T22:16:15.958Z,77.47
2022-11-15T22:19:18.012Z,77.46
2022-11-15T22:22:20.052Z,77.56
2022-11-15T22:25:22.057Z,77.60
2022-11-15T22:28:24.230Z,77.69
2022-11-15T22:31:26.220Z,77.82
2022-11-15T22:34:28.143Z,78.13
2022-11-15T22:37:30.071Z,78.01
2022-11-15T22:40:31.931Z,77.95
2022-11-15T22:43:34.312Z,78.22
2022-11-15T22:46:36.198Z,78.13
2022-11-15T22:49:37.981Z,78.73
2022-11-15T22:52:41.496Z,78.70
2022-11-15T22:55:43.594Z,78.83
2022-11-15T22:58:45.471Z,79.05
2022-11-15T23:01:47.426Z,79.02
2022-11-15T23:04:49.370Z,78.71
2022-11-15T23:07:51.259Z,79.10
2022-11-15T23:11:11.614Z,78.96
2022-11-15T23:14:13.548Z,79.41
2022-11-15T23:17:16.296Z,79.74
2022-11-15T23:20:41.787Z,79.53
2022-11-15T23:23:40.867Z,79.68
2022-11-15T23:26:44.211Z,79.70
2022-11-15T23:30:05.954Z,79.97
2022-11-15T23:33:34.353Z,79.91
2022-11-15T23:36:36.279Z,79.85
2022-11-15T23:39:38.228Z,80.34
2022-11-15T23:42:40.203Z,80.15
2022-11-15T23:45:41.992Z,80.41
2022-11-15T23:48:43.933Z,80.54
2022-11-15T23:51:45.772Z,80.67
2022-11-15T23:54:47.593Z,81.03
2022-11-15T23:57:49.478Z,80.95
